Time;durP1;ratioP1;P1;durP2;ratioP2;P2;SDS_P1;SDS_P2;PMS_P1;PMS_P2;Temp;Humidity;BMP_temperature;BMP_pressure;BME280_temperature;BME280_humidity;BME280_pressure;Samples;Min_cycle;Max_cycle;Signal;HPM_P1;HPM_P2
2023/10/27 00:01:22;;;;;;;20.08;14.65;;;;;;;11.00;100.00;99100.06;5139087;27;20444;-63
2023/10/27 00:04:10;;;;;;;19.05;14.30;;;;;;;11.01;100.00;99101.66;5111464;27;20040;-63
2023/10/27 00:06:59;;;;;;;20.40;14.00;;;;;;;11.03;100.00;99098.66;5100867;28;20073;-63
2023/10/27 00:09:47;;;;;;;16.92;13.52;;;;;;;11.02;100.00;99100.56;5113174;28;20048;-63
2023/10/27 00:12:35;;;;;;;20.02;14.43;;;;;;;11.01;100.00;99093.50;5098204;28;20055;-62
2023/10/27 00:15:23;;;;;;;18.58;13.98;;;;;;;10.98;100.00;99091.41;5095876;27;20495;-62
2023/10/27 00:18:14;;;;;;;16.98;13.48;;;;;;;10.98;100.00;99091.41;5117806;27;20495;-63
2023/10/27 00:21:03;;;;;;;17.33;13.60;;;;;;;10.99;100.00;99081.31;5078981;28;20059;-61
2023/10/27 00:23:51;;;;;;;18.40;13.95;;;;;;;10.99;100.00;99087.59;5095548;28;20044;-62
2023/10/27 00:26:39;;;;;;;17.42;14.00;;;;;;;10.97;100.00;99084.38;5098230;28;20078;-64
2023/10/27 00:29:27;;;;;;;18.33;14.00;;;;;;;10.96;100.00;99077.28;5113465;28;20048;-62
2023/10/27 00:32:15;;;;;;;16.85;13.20;;;;;;;10.94;100.00;99073.28;5113275;28;20069;-62
2023/10/27 00:35:06;;;;;;;18.33;13.98;;;;;;;10.91;100.00;99069.25;5112866;28;20419;-63
2023/10/27 00:37:54;;;;;;;19.23;13.95;;;;;;;10.90;100.00;99077.75;5112570;27;20058;-62
2023/10/27 00:40:46;;;;;;;18.60;14.18;;;;;;;10.89;100.00;99071.47;5133545;27;20051;-60
2023/10/27 00:43:34;;;;;;;17.95;13.30;;;;;;;10.89;100.00;99071.47;5124859;27;20063;-63
2023/10/27 00:46:23;;;;;;;18.85;14.77;;;;;;;10.91;100.00;99066.53;5091701;28;20086;-62
2023/10/27 00:49:11;;;;;;;20.35;14.88;;;;;;;10.92;100.00;99067.31;5112938;28;20052;-61
2023/10/27 00:52:00;;;;;;;20.15;14.52;;;;;;;10.94;100.00;99065.09;5097291;28;20208;-62
2023/10/27 00:54:49;;;;;;;18.60;15.18;;;;;;;10.96;100.00;99060.13;5123676;27;20176;-62
2023/10/27 00:57:37;;;;;;;19.38;14.85;;;;;;;10.97;100.00;99068.00;5098370;28;20115;-61
2023/10/27 01:00:25;;;;;;;18.65;14.27;;;;;;;10.95;100.00;99067.53;5104632;28;20140;-62
2023/10/27 01:03:13;;;;;;;18.63;13.90;;;;;;;10.97;100.00;99064.50;5098157;28;20165;-63
2023/10/27 01:06:01;;;;;;;19.58;14.80;;;;;;;10.98;100.00;99064.16;5045654;28;20127;-62
2023/10/27 01:08:49;;;;;;;21.08;14.65;;;;;;;10.95;100.00;99058.53;5092840;28;20126;-62
2023/10/27 01:11:37;;;;;;;20.73;14.27;;;;;;;10.93;100.00;99061.56;5120376;28;20085;-63
2023/10/27 01:14:27;;;;;;;18.05;13.65;;;;;;;10.92;100.00;99059.97;5131574;28;20066;-58
2023/10/27 01:17:14;;;;;;;17.98;13.60;;;;;;;10.93;100.00;99056.13;5137600;28;20069;-62
2023/10/27 01:20:03;;;;;;;17.00;13.63;;;;;;;10.96;100.00;99050.03;5118904;28;20486;-62
2023/10/27 01:22:51;;;;;;;17.73;13.60;;;;;;;10.95;100.00;99048.44;5111835;28;20048;-57
2023/10/27 01:25:39;;;;;;;16.83;13.07;;;;;;;10.96;100.00;99050.03;5119930;28;20111;-60
2023/10/27 01:28:27;;;;;;;16.00;12.43;;;;;;;10.98;100.00;99049.72;5111765;28;20594;-64
2023/10/27 01:31:15;;;;;;;16.75;12.23;;;;;;;10.97;100.00;99053.59;5113869;28;20499;-62
2023/10/27 01:34:03;;;;;;;16.75;12.35;;;;;;;10.97;100.00;99046.22;5101792;28;20036;-63
2023/10/27 01:36:51;;;;;;;15.45;12.45;;;;;;;10.99;100.00;99049.44;5116722;28;20048;-62
2023/10/27 01:39:39;;;;;;;15.07;11.25;;;;;;;11.01;100.00;99051.81;5112451;28;20079;-62
2023/10/27 01:42:29;;;;;;;16.30;12.10;;;;;;;11.02;100.00;99051.53;5129287;27;20046;-63
2023/10/27 01:45:17;;;;;;;16.95;12.05;;;;;;;11.03;100.00;99053.13;5135777;27;20050;-64
2023/10/27 01:48:05;;;;;;;15.90;12.68;;;;;;;11.03;100.00;99047.66;5081029;28;20097;-62
2023/10/27 01:50:55;;;;;;;16.58;12.55;;;;;;;11.02;100.00;99045.28;5094188;28;20411;-63
2023/10/27 01:53:44;;;;;;;15.82;12.65;;;;;;;11.02;100.00;99046.06;5115004;28;20122;-62
2023/10/27 01:56:34;;;;;;;15.73;11.77;;;;;;;11.02;100.00;99037.91;5086003;28;20047;-63
2023/10/27 01:59:22;;;;;;;16.48;11.52;;;;;;;11.02;100.00;99042.53;5099649;28;20134;-62
2023/10/27 02:02:13;;;;;;;15.80;10.50;;;;;;;11.01;100.00;99039.00;5089367;28;20040;-60
2023/10/27 02:05:03;;;;;;;14.95;10.60;;;;;;;11.02;100.00;99031.66;5114193;28;20086;-61
2023/10/27 02:07:51;;;;;;;14.60;10.80;;;;;;;11.03;100.00;99034.03;5087265;28;20043;-62
2023/10/27 02:10:39;;;;;;;15.27;10.45;;;;;;;11.03;100.00;99031.31;5099006;28;20047;-59
2023/10/27 02:13:28;;;;;;;15.57;10.10;;;;;;;11.05;100.00;99029.06;5077707;28;20093;-63
2023/10/27 02:16:16;;;;;;;14.25;10.05;;;;;;;11.08;100.00;99024.91;5103550;28;20055;-63
2023/10/27 02:19:04;;;;;;;14.85;9.95;;;;;;;11.09;100.00;99016.44;5103393;28;20052;-63
2023/10/27 02:21:52;;;;;;;16.85;10.13;;;;;;;11.09;100.00;99016.44;5090420;28;20090;-63
2023/10/27 02:24:42;;;;;;;14.73;9.95;;;;;;;11.11;100.00;99018.03;5110962;28;20055;-63
2023/10/27 02:27:31;;;;;;;14.38;9.63;;;;;;;11.12;100.00;99015.00;5118516;28;20136;-63
2023/10/27 02:30:19;;;;;;;16.08;9.38;;;;;;;11.12;100.00;99008.75;5115536;28;20061;-62
2023/10/27 02:33:07;;;;;;;15.95;9.77;;;;;;;11.13;100.00;99010.34;5102201;27;20406;-62
2023/10/27 02:35:55;;;;;;;11.88;8.25;;;;;;;11.12;100.00;99014.19;5117245;27;20035;-62
2023/10/27 02:38:43;;;;;;;15.68;9.25;;;;;;;11.12;100.00;99008.75;5086101;28;20043;-63
2023/10/27 02:41:31;;;;;;;15.02;8.70;;;;;;;11.14;100.00;99011.97;5115060;28;20040;-61
2023/10/27 02:44:19;;;;;;;13.63;8.57;;;;;;;11.14;100.00;99003.78;5072373;28;20035;-62
2023/10/27 02:47:08;;;;;;;13.15;8.05;;;;;;;11.13;100.00;99004.91;5087367;28;20453;-62
2023/10/27 02:49:56;;;;;;;14.75;8.30;;;;;;;11.11;100.00;98998.94;5099095;28;20457;-62
2023/10/27 02:52:44;;;;;;;16.95;8.98;;;;;;;11.09;100.00;99005.53;5084927;28;20047;-62
2023/10/27 02:55:36;;;;;;;16.00;8.35;;;;;;;11.13;100.00;98999.44;5080888;27;20533;-63
2023/10/27 02:58:24;;;;;;;14.80;7.45;;;;;;;11.12;100.00;98998.66;5143390;27;20383;-62
2023/10/27 03:01:15;;;;;;;13.23;7.60;;;;;;;11.12;100.00;98993.19;5116617;27;20050;-64
2023/10/27 03:04:03;;;;;;;14.52;6.97;;;;;;;11.13;100.00;98996.72;5115944;27;20122;-62
2023/10/27 03:06:51;;;;;;;12.93;7.15;;;;;;;11.13;100.00;98994.00;5099372;28;20117;-63
2023/10/27 03:09:39;;;;;;;12.77;7.20;;;;;;;11.12;100.00;98993.19;5099643;28;20043;-62
2023/10/27 03:12:28;;;;;;;12.85;7.10;;;;;;;11.12;100.00;98995.91;5114391;28;20458;-61
2023/10/27 03:15:16;;;;;;;16.90;7.38;;;;;;;11.12;100.00;98990.47;5100274;28;20089;-61
2023/10/27 03:18:04;;;;;;;15.35;8.05;;;;;;;11.14;100.00;98990.16;5100695;28;20089;-62
2023/10/27 03:21:00;;;;;;;15.70;6.80;;;;;;;11.16;100.00;98993.34;5114903;28;20055;-62
2023/10/27 03:23:48;;;;;;;15.50;7.43;;;;;;;11.15;100.00;98995.28;5106230;28;20056;-64
2023/10/27 03:26:36;;;;;;;13.18;7.60;;;;;;;11.16;100.00;98993.34;5080020;28;20047;-61
2023/10/27 03:29:24;;;;;;;15.27;6.60;;;;;;;11.14;100.00;98984.72;5071977;28;20044;-62
2023/10/27 03:32:12;;;;;;;14.38;7.50;;;;;;;11.14;100.00;98990.16;5091774;28;20399;-63
2023/10/27 03:35:00;;;;;;;15.75;7.72;;;;;;;11.14;100.00;98990.16;5082671;28;20517;-63
2023/10/27 03:37:48;;;;;;;14.13;6.72;;;;;;;11.15;100.00;98986.31;5114563;28;20569;-63
2023/10/27 03:40:41;;;;;;;14.73;7.07;;;;;;;11.13;100.00;98980.38;5105669;27;20527;-63
2023/10/27 03:43:30;;;;;;;14.10;6.97;;;;;;;11.13;100.00;98980.38;5078101;28;20044;-63
2023/10/27 03:46:18;;;;;;;14.00;6.60;;;;;;;11.14;100.00;98979.25;5092067;28;20039;-63
2023/10/27 03:49:07;;;;;;;14.13;6.78;;;;;;;11.13;100.00;98981.16;5113613;28;20039;-63
2023/10/27 03:51:56;;;;;;;11.40;6.32;;;;;;;11.14;100.00;98977.34;5099369;28;20051;-63
2023/10/27 03:54:44;;;;;;;12.90;6.82;;;;;;;11.13;100.00;98978.44;5098622;28;20044;-60
2023/10/27 03:57:35;;;;;;;11.15;6.63;;;;;;;11.11;100.00;98979.88;5104488;28;20048;-63
2023/10/27 04:00:24;;;;;;;15.77;6.80;;;;;;;11.11;100.00;98979.88;5100539;27;20410;-62
2023/10/27 04:03:13;;;;;;;18.45;7.05;;;;;;;11.12;100.00;98973.31;5095982;28;20052;-61
2023/10/27 04:06:01;;;;;;;13.18;7.00;;;;;;;11.13;100.00;98978.44;5114965;28;20055;-63
2023/10/27 04:08:51;;;;;;;14.65;6.72;;;;;;;11.13;100.00;98977.63;5095585;28;20044;-64
2023/10/27 04:11:39;;;;;;;14.70;6.93;;;;;;;11.11;100.00;98975.22;5105447;28;20372;-62
2023/10/27 04:14:27;;;;;;;14.23;6.90;;;;;;;11.12;100.00;98970.59;5096607;28;20039;-65
2023/10/27 04:17:15;;;;;;;20.40;7.25;;;;;;;11.12;100.00;98976.03;5094830;28;20134;-64
2023/10/27 04:20:04;;;;;;;13.55;6.72;;;;;;;11.09;100.00;98970.09;5089568;28;20161;-64
2023/10/27 04:22:52;;;;;;;13.82;6.80;;;;;;;11.09;100.00;98972.81;5093329;28;20077;-65
2023/10/27 04:25:40;;;;;;;15.13;7.57;;;;;;;11.07;100.00;98972.34;5110945;28;20070;-64
2023/10/27 04:28:28;;;;;;;15.50;8.18;;;;;;;11.04;100.00;98974.88;5093651;28;20044;-65
2023/10/27 04:31:16;;;;;;;11.68;7.18;;;;;;;11.02;100.00;98972.47;5100150;28;20043;-66
2023/10/27 04:34:04;;;;;;;15.60;7.63;;;;;;;11.01;100.00;98975.50;5085074;28;20124;-65
2023/10/27 04:36:54;;;;;;;16.08;7.43;;;;;;;11.01;100.00;98975.50;5110411;28;20047;-65
2023/10/27 04:39:43;;;;;;;15.88;7.35;;;;;;;11.03;100.00;98976.00;5095353;28;20407;-64
2023/10/27 04:42:31;;;;;;;16.02;7.30;;;;;;;11.03;100.00;98974.06;5106980;28;20068;-64
2023/10/27 04:45:19;;;;;;;13.32;6.18;;;;;;;11.03;100.00;98976.81;5076332;28;20526;-65
2023/10/27 04:48:07;;;;;;;12.52;6.50;;;;;;;11.04;100.00;98977.59;5113893;28;20055;-64
2023/10/27 04:50:59;;;;;;;13.88;6.35;;;;;;;11.04;100.00;98981.16;5091147;28;20144;-65
2023/10/27 04:53:46;;;;;;;15.35;7.05;;;;;;;11.05;100.00;98981.94;5110557;28;20514;-64
2023/10/27 04:56:34;;;;;;;14.23;6.30;;;;;;;11.07;100.00;98979.72;5110822;28;20048;-62
2023/10/27 04:59:22;;;;;;;14.82;7.15;;;;;;;11.06;100.00;98978.91;5097647;28;20145;-65
2023/10/27 05:02:10;;;;;;;12.55;6.07;;;;;;;11.05;100.00;98982.75;5097278;28;20046;-64
2023/10/27 05:04:58;;;;;;;14.02;6.50;;;;;;;11.06;100.00;98984.38;5098070;28;20039;-64
2023/10/27 05:07:47;;;;;;;15.90;6.50;;;;;;;11.06;100.00;98976.19;5102528;28;20495;-64
2023/10/27 05:10:36;;;;;;;13.48;6.32;;;;;;;11.05;100.00;98974.56;5106283;28;20563;-64
2023/10/27 05:13:24;;;;;;;14.75;6.35;;;;;;;11.03;100.00;98974.06;4387413;28;10000048;-64
2023/10/27 05:16:12;;;;;;;14.88;6.68;;;;;;;11.02;100.00;98977.94;5089415;28;20085;-65
2023/10/27 05:19:00;;;;;;;13.45;6.40;;;;;;;10.97;100.00;98972.63;5107398;28;20104;-63
2023/10/27 05:21:48;;;;;;;12.70;6.35;;;;;;;10.92;100.00;98967.34;5103210;28;20134;-65
2023/10/27 05:24:36;;;;;;;15.32;6.78;;;;;;;10.90;100.00;98963.31;5093322;28;20117;-64
2023/10/27 05:27:25;;;;;;;14.77;6.70;;;;;;;10.89;100.00;98965.22;5095225;28;20047;-63
2023/10/27 05:30:13;;;;;;;13.60;6.53;;;;;;;10.88;100.00;98966.34;5108226;28;20136;-63
2023/10/27 05:33:01;;;;;;;12.85;6.40;;;;;;;10.88;100.00;98961.69;5085136;28;20058;-65
2023/10/27 05:35:51;;;;;;;11.98;6.53;;;;;;;10.89;100.00;98959.78;5109402;28;20048;-66
2023/10/27 05:38:39;;;;;;;12.88;6.70;;;;;;;10.86;100.00;98968.59;5109711;28;20392;-64
2023/10/27 05:41:27;;;;;;;20.15;7.60;;;;;;;10.82;100.00;98957.53;5125150;28;20115;-63
2023/10/27 05:44:15;;;;;;;13.00;6.60;;;;;;;10.79;100.00;98957.34;5127676;28;20028;-61
2023/10/27 05:47:03;;;;;;;15.35;6.65;;;;;;;10.77;100.00;98962.28;5118317;28;20040;-62
2023/10/27 05:49:54;;;;;;;13.90;6.25;;;;;;;10.75;100.00;98950.91;5111695;28;20055;-64
2023/10/27 05:52:42;;;;;;;11.85;6.38;;;;;;;10.75;100.00;98951.72;5090192;28;20071;-64
2023/10/27 05:55:30;;;;;;;14.82;6.18;;;;;;;10.81;100.00;98960.56;5111321;28;20043;-65
2023/10/27 05:58:18;;;;;;;13.38;6.53;;;;;;;10.84;100.00;98955.25;5109912;28;20130;-64
2023/10/27 06:01:06;;;;;;;14.85;6.50;;;;;;;10.79;100.00;98955.41;5091825;28;20177;-65
2023/10/27 06:03:57;;;;;;;15.73;7.30;;;;;;;10.76;100.00;98953.31;5110513;28;20570;-65
2023/10/27 06:06:46;;;;;;;13.50;6.47;;;;;;;10.79;100.00;98957.34;5112792;28;20130;-65
2023/10/27 06:09:34;;;;;;;13.82;6.43;;;;;;;10.79;100.00;98957.34;5082781;28;20050;-66
2023/10/27 06:12:22;;;;;;;15.52;7.10;;;;;;;10.80;100.00;98953.47;5089869;28;20055;-65
2023/10/27 06:15:10;;;;;;;12.27;6.65;;;;;;;10.79;100.00;98962.78;5112399;28;20047;-65
2023/10/27 06:17:59;;;;;;;13.20;7.20;;;;;;;10.79;100.00;98960.06;5111869;28;20530;-64
2023/10/27 06:20:47;;;;;;;13.18;7.20;;;;;;;10.78;100.00;98959.25;5082721;28;20118;-65
2023/10/27 06:23:35;;;;;;;12.70;7.07;;;;;;;10.80;100.00;98961.66;5076977;28;20115;-65
2023/10/27 06:26:23;;;;;;;14.05;7.00;;;;;;;10.80;100.00;98958.94;5102810;28;20108;-64
2023/10/27 06:29:11;;;;;;;14.68;6.18;;;;;;;10.81;100.00;98963.28;5060492;28;20073;-64
2023/10/27 06:31:59;;;;;;;13.35;6.38;;;;;;;10.81;100.00;98961.34;5077508;28;20101;-64
2023/10/27 06:34:47;;;;;;;12.55;6.43;;;;;;;10.84;100.00;98954.47;5079416;28;20642;-65
2023/10/27 06:37:36;;;;;;;12.40;6.55;;;;;;;10.85;100.00;98962.34;5082895;28;20364;-64
2023/10/27 06:40:24;;;;;;;14.13;6.78;;;;;;;10.85;100.00;98965.06;5085201;27;20047;-65
2023/10/27 06:43:12;;;;;;;12.98;6.57;;;;;;;10.81;100.00;98966.00;5090059;28;20048;-64
2023/10/27 06:46:01;;;;;;;13.93;6.82;;;;;;;10.78;100.00;98969.38;5100206;28;20040;-64
2023/10/27 06:48:52;;;;;;;12.48;6.90;;;;;;;10.78;100.00;98967.44;5094214;28;20054;-64
2023/10/27 06:51:40;;;;;;;13.40;7.38;;;;;;;10.82;100.00;98968.44;5119776;27;20047;-63
2023/10/27 06:54:28;;;;;;;12.13;6.55;;;;;;;10.81;100.00;98964.06;5093027;28;20043;-64
2023/10/27 06:57:16;;;;;;;12.85;7.30;;;;;;;10.80;100.00;98962.47;5100697;28;20128;-64
2023/10/27 07:00:04;;;;;;;12.20;7.63;;;;;;;10.81;100.00;98966.81;5114749;28;20047;-64
2023/10/27 07:02:52;;;;;;;12.60;7.25;;;;;;;10.85;100.00;98967.00;5100239;28;20048;-64
2023/10/27 07:05:44;;;;;;;14.45;7.60;;;;;;;10.87;100.00;98972.91;5088907;28;20040;-64
2023/10/27 07:08:32;;;;;;;14.63;8.55;;;;;;;10.88;100.00;98974.53;5094667;28;20044;-66
2023/10/27 07:11:22;;;;;;;14.07;7.85;;;;;;;10.85;100.00;98977.88;5080209;28;20044;-65
2023/10/27 07:14:13;;;;;;;17.20;8.68;;;;;;;10.78;100.00;98977.53;5112007;28;20075;-65
2023/10/27 07:17:01;;;;;;;12.70;7.95;;;;;;;10.75;100.00;98984.41;5118841;28;20103;-64
2023/10/27 07:19:49;;;;;;;13.55;7.53;;;;;;;10.74;100.00;98987.44;5118095;28;20048;-63
2023/10/27 07:22:37;;;;;;;10.00;6.40;;;;;;;10.76;100.00;98996.13;5115161;28;20047;-64
2023/10/27 07:25:25;;;;;;;14.23;6.63;;;;;;;10.77;100.00;98995.78;5116642;28;20419;-65
2023/10/27 07:28:13;;;;;;;11.05;6.50;;;;;;;10.78;100.00;99000.13;5116890;28;20047;-65
2023/10/27 07:31:04;;;;;;;12.32;6.32;;;;;;;10.79;100.00;99003.66;5088275;28;20126;-64
2023/10/27 07:33:52;;;;;;;13.07;6.57;;;;;;;10.77;100.00;98998.50;5116163;28;20439;-65
2023/10/27 07:36:40;;;;;;;10.60;6.20;;;;;;;10.75;100.00;99000.75;5116021;28;20051;-65
2023/10/27 07:39:28;;;;;;;9.60;6.40;;;;;;;10.74;100.00;98999.13;5116238;28;20039;-63
2023/10/27 07:42:16;;;;;;;10.02;6.38;;;;;;;10.76;100.00;99004.28;5073269;28;20040;-64
2023/10/27 07:45:05;;;;;;;10.63;5.90;;;;;;;10.77;100.00;99003.16;5098210;28;20039;-63
2023/10/27 07:47:53;;;;;;;11.00;5.65;;;;;;;10.81;100.00;99009.59;5100041;28;20148;-65
2023/10/27 07:50:42;;;;;;;10.80;5.72;;;;;;;10.84;100.00;99009.75;5099585;28;20083;-63
2023/10/27 07:53:30;;;;;;;10.80;6.30;;;;;;;10.88;100.00;99007.22;5078158;28;20500;-64
2023/10/27 07:56:18;;;;;;;12.38;6.70;;;;;;;10.88;100.00;99004.50;5094163;28;20048;-63
2023/10/27 07:59:06;;;;;;;10.73;6.07;;;;;;;10.91;100.00;99009.31;5064597;28;20048;-64
2023/10/27 08:01:57;;;;;;;12.93;6.53;;;;;;;10.91;100.00;99009.31;5059077;28;20101;-64
2023/10/27 08:04:48;;;;;;;10.65;5.75;;;;;;;10.92;100.00;99016.38;5065912;28;20044;-63
2023/10/27 08:07:37;;;;;;;10.18;5.93;;;;;;;10.95;100.00;99017.66;5050226;28;20044;-63
2023/10/27 08:10:25;;;;;;;10.32;5.78;;;;;;;10.97;100.00;99018.16;5065067;28;20075;-65
2023/10/27 08:13:16;;;;;;;10.65;6.15;;;;;;;10.96;100.00;99016.53;5092482;28;20127;-64
2023/10/27 08:16:05;;;;;;;10.52;5.82;;;;;;;10.98;100.00;99023.28;5093194;28;20044;-64
2023/10/27 08:18:53;;;;;;;9.65;6.18;;;;;;;10.98;100.00;99026.00;5092323;28;20063;-65
2023/10/27 08:21:41;;;;;;;11.32;6.10;;;;;;;11.00;100.00;99020.25;5092252;28;20044;-67
2023/10/27 08:24:30;;;;;;;13.20;6.13;;;;;;;11.00;100.00;99023.78;5093423;28;20126;-64
2023/10/27 08:27:18;;;;;;;9.73;6.00;;;;;;;11.01;100.00;99027.28;5092815;28;20181;-65
2023/10/27 08:30:06;;;;;;;10.13;5.88;;;;;;;11.00;100.00;99034.66;5093080;28;20491;-64
2023/10/27 08:32:54;;;;;;;11.82;6.22;;;;;;;11.00;100.00;99034.66;5062793;28;20052;-64
2023/10/27 08:35:42;;;;;;;8.68;5.53;;;;;;;10.99;100.00;99033.09;5092475;28;20135;-64
2023/10/27 08:38:32;;;;;;;10.52;5.78;;;;;;;11.00;100.00;99029.22;5092689;28;20040;-65
2023/10/27 08:41:22;;;;;;;7.68;5.03;;;;;;;11.01;100.00;99025.38;5077511;28;20036;-65
2023/10/27 08:44:10;;;;;;;10.07;6.00;;;;;;;11.01;100.00;99022.63;5092499;28;20044;-64
2023/10/27 08:47:12;;;;;;;9.30;5.43;;;;;;;10.99;100.00;99027.63;5092353;28;20527;-65
2023/10/27 08:50:04;;;;;;;9.27;5.55;;;;;;;10.98;100.00;99028.72;5100217;28;20140;-65
2023/10/27 08:52:53;;;;;;;7.95;5.65;;;;;;;10.97;100.00;99032.59;5096520;28;20060;-64
2023/10/27 08:55:42;;;;;;;9.98;5.40;;;;;;;11.00;100.00;99040.13;5085762;28;20093;-69
2023/10/27 08:58:30;;;;;;;10.10;6.18;;;;;;;11.03;100.00;99038.69;5093501;28;20196;-64
2023/10/27 09:01:18;;;;;;;9.18;5.40;;;;;;;11.05;100.00;99050.09;5080111;28;20059;-66
2023/10/27 09:04:08;;;;;;;8.65;5.60;;;;;;;11.07;100.00;99051.38;5065697;28;20043;-64
2023/10/27 09:06:56;;;;;;;7.93;5.35;;;;;;;11.05;100.00;99045.44;5078290;28;20154;-65
2023/10/27 09:09:44;;;;;;;7.80;5.03;;;;;;;11.07;100.00;99045.94;5077465;28;20059;-65
2023/10/27 09:12:36;;;;;;;7.93;5.00;;;;;;;11.07;100.00;99051.38;5071864;28;20141;-66
2023/10/27 09:15:24;;;;;;;8.95;4.63;;;;;;;11.07;100.00;99048.66;5047534;28;20063;-65
2023/10/27 09:18:15;;;;;;;9.25;4.95;;;;;;;11.08;100.00;99057.63;5091982;28;20495;-65
2023/10/27 09:21:04;;;;;;;7.75;4.97;;;;;;;11.08;100.00;99055.69;5086470;28;20407;-65
2023/10/27 09:23:52;;;;;;;9.13;4.63;;;;;;;11.11;100.00;99061.63;5113427;28;20140;-65
2023/10/27 09:26:46;;;;;;;8.13;4.88;;;;;;;11.08;100.00;99058.41;5101224;28;20080;-66
2023/10/27 09:29:40;;;;;;;7.50;4.60;;;;;;;11.11;100.00;99059.72;5078650;28;20056;-65
2023/10/27 09:32:29;;;;;;;7.65;4.68;;;;;;;11.10;100.00;99060.84;5113190;28;20051;-66
2023/10/27 09:35:18;;;;;;;6.15;4.15;;;;;;;11.12;100.00;99066.00;5112436;28;20055;-65
2023/10/27 09:38:08;;;;;;;6.28;4.07;;;;;;;11.13;100.00;99070.31;5087542;28;20071;-65
2023/10/27 09:40:57;;;;;;;6.65;4.40;;;;;;;11.14;100.00;99074.66;5077917;28;20125;-66
2023/10/27 09:43:47;;;;;;;7.20;4.15;;;;;;;11.15;100.00;99073.53;5078551;28;20064;-66
2023/10/27 09:46:37;;;;;;;7.25;3.83;;;;;;;11.17;100.00;99071.28;5097304;28;20044;-66
2023/10/27 09:49:33;;;;;;;5.30;3.70;;;;;;;11.18;100.00;99078.34;5096867;28;20056;-65
2023/10/27 09:52:22;;;;;;;5.03;3.80;;;;;;;11.19;100.00;99075.31;5081311;28;20055;-66
2023/10/27 09:55:13;;;;;;;5.35;3.88;;;;;;;11.21;100.00;99077.75;5067319;28;20040;-65
2023/10/27 09:58:03;;;;;;;6.72;4.00;;;;;;;11.22;100.00;99076.59;5080242;28;20059;-65
2023/10/27 10:00:51;;;;;;;4.38;3.33;;;;;;;11.22;100.00;99079.34;5083147;28;20048;-65
2023/10/27 10:03:43;;;;;;;7.43;3.47;;;;;;;11.22;100.00;99071.16;5085481;28;20044;-65
2023/10/27 10:06:32;;;;;;;4.70;3.30;;;;;;;11.21;100.00;99066.84;5107402;28;20044;-62
2023/10/27 10:09:41;;;;;;;6.05;3.47;;;;;;;11.20;100.00;99067.94;5095635;28;20041;-59
2023/10/27 10:12:56;;;;;;;7.97;3.90;;;;;;;11.21;100.00;99058.66;5089973;28;20048;-65
2023/10/27 10:15:45;;;;;;;6.83;3.40;;;;;;;11.23;100.00;99059.13;5105608;28;20052;-58
2023/10/27 10:18:33;;;;;;;5.18;3.35;;;;;;;11.24;100.00;99058.81;5067729;28;20267;-61
2023/10/27 10:21:38;;;;;;;7.03;3.70;;;;;;;11.25;100.00;99054.94;5095072;28;20044;-61
2023/10/27 10:24:26;;;;;;;8.07;3.28;;;;;;;11.23;100.00;99038.13;5077008;28;20474;-64
2023/10/27 10:27:15;;;;;;;5.40;3.33;;;;;;;11.21;100.00;99050.47;5083660;28;20040;-64
2023/10/27 10:30:20;;;;;;;5.85;3.60;;;;;;;11.25;100.00;99062.34;5097769;28;20052;-67
2023/10/27 10:33:14;;;;;;;7.67;4.07;;;;;;;11.30;100.00;99068.47;5081713;28;20070;-69
2023/10/27 10:36:18;;;;;;;8.25;4.22;;;;;;;11.37;100.00;99062.53;5095478;28;20040;-69
2023/10/27 10:39:06;;;;;;;8.65;4.30;;;;;;;11.41;100.00;99081.81;5066557;28;20123;-67
2023/10/27 10:42:00;;;;;;;8.20;3.70;;;;;;;11.43;100.00;99083.09;5047357;28;20047;-67
2023/10/27 10:44:48;;;;;;;9.85;4.43;;;;;;;11.50;100.00;99080.72;5054589;28;20182;-67
2023/10/27 10:47:36;;;;;;;7.20;3.75;;;;;;;11.54;100.00;99090.97;5086135;28;20484;-64
2023/10/27 10:50:28;;;;;;;6.78;3.53;;;;;;;11.53;100.00;99095.63;5106141;28;20055;-63
2023/10/27 10:53:21;;;;;;;6.60;3.30;;;;;;;11.50;100.00;99099.00;5092128;28;20169;-64
2023/10/27 10:56:10;;;;;;;6.00;3.10;;;;;;;11.47;100.00;99092.25;5100723;28;20499;-64
2023/10/27 10:59:03;;;;;;;7.22;3.33;;;;;;;11.44;100.00;99092.88;5115723;28;20039;-64
2023/10/27 11:01:58;;;;;;;5.75;3.03;;;;;;;11.44;100.00;99100.25;5116432;27;20092;-64
2023/10/27 11:04:47;;;;;;;5.85;3.22;;;;;;;11.43;100.00;99091.28;5104715;27;20043;-64
2023/10/27 11:07:36;;;;;;;4.15;3.05;;;;;;;11.42;100.00;99100.56;5092338;28;20043;-65
2023/10/27 11:10:25;;;;;;;6.18;3.60;;;;;;;11.42;100.00;99086.13;5099880;28;20044;-64
2023/10/27 11:13:13;;;;;;;6.05;3.40;;;;;;;11.42;100.00;99086.91;5075444;28;20047;-65
2023/10/27 11:16:01;;;;;;;5.95;3.60;;;;;;;11.42;100.00;99086.91;5100274;28;20044;-64
2023/10/27 11:18:53;;;;;;;4.00;3.20;;;;;;;11.41;100.00;99088.06;5086474;28;20138;-64
2023/10/27 11:21:42;;;;;;;5.68;3.53;;;;;;;11.39;100.00;99082.09;5114284;28;20518;-64
2023/10/27 11:24:31;;;;;;;7.15;4.03;;;;;;;11.39;100.00;99073.94;5091704;28;20580;-64
2023/10/27 11:27:26;;;;;;;6.25;3.97;;;;;;;11.39;100.00;99084.84;5114727;28;20161;-63
2023/10/27 11:30:23;;;;;;;5.22;3.03;;;;;;;11.38;100.00;99088.69;5086318;28;20414;-65
2023/10/27 11:33:11;;;;;;;5.70;3.75;;;;;;;11.37;100.00;99083.53;5113729;28;20560;-64
2023/10/27 11:36:00;;;;;;;6.43;3.70;;;;;;;11.38;100.00;99085.97;5097006;28;20483;-66
2023/10/27 11:38:49;;;;;;;7.97;3.80;;;;;;;11.38;100.00;99077.78;5091821;28;20051;-64
2023/10/27 11:41:37;;;;;;;8.20;4.32;;;;;;;11.38;100.00;99079.72;5085054;28;20048;-65
2023/10/27 11:44:26;;;;;;;5.88;3.83;;;;;;;11.38;100.00;99088.69;5094137;28;20121;-65
2023/10/27 11:47:14;;;;;;;7.30;3.97;;;;;;;11.38;100.00;99088.69;5086649;28;20116;-64
2023/10/27 11:50:05;;;;;;;6.03;3.88;;;;;;;11.38;100.00;99091.41;5114517;28;20142;-65
2023/10/27 11:52:53;;;;;;;6.45;3.70;;;;;;;11.36;100.00;99090.13;5112117;28;20101;-67
2023/10/27 11:55:41;;;;;;;7.18;4.10;;;;;;;11.35;100.00;99083.84;5084956;28;20047;-63
2023/10/27 11:58:30;;;;;;;7.95;3.70;;;;;;;11.35;100.00;99080.31;5115929;27;20188;-64
2023/10/27 12:01:19;;;;;;;6.45;3.90;;;;;;;11.33;100.00;99075.22;5132976;27;20415;-64
2023/10/27 12:04:09;;;;;;;7.13;4.50;;;;;;;11.34;100.00;99081.47;5071489;28;20504;-65
2023/10/27 12:06:58;;;;;;;6.32;3.90;;;;;;;11.34;100.00;99084.19;5079762;28;20515;-64
2023/10/27 12:09:46;;;;;;;6.82;4.25;;;;;;;11.35;100.00;99077.59;5113682;27;20039;-65
2023/10/27 12:12:34;;;;;;;8.07;5.00;;;;;;;11.35;100.00;99083.84;5117579;27;20108;-66
2023/10/27 12:15:22;;;;;;;9.40;6.25;;;;;;;11.36;100.00;99077.28;5126087;27;20047;-65
2023/10/27 12:18:10;;;;;;;9.60;5.85;;;;;;;11.38;100.00;99077.00;5125652;27;20043;-66
2023/10/27 12:21:01;;;;;;;11.63;6.68;;;;;;;11.38;100.00;99080.50;5130128;27;20368;-64
2023/10/27 12:23:49;;;;;;;10.90;6.35;;;;;;;11.42;100.00;99077.94;5100256;28;20436;-65
2023/10/27 12:26:37;;;;;;;11.77;6.50;;;;;;;11.44;100.00;99087.41;5069780;28;20036;-64
2023/10/27 12:29:26;;;;;;;11.20;6.15;;;;;;;11.47;100.00;99081.34;5103806;27;20054;-64
2023/10/27 12:32:14;;;;;;;10.02;5.88;;;;;;;11.48;100.00;99082.94;5109668;28;20055;-64
2023/10/27 12:35:02;;;;;;;13.43;7.43;;;;;;;11.51;100.00;99078.78;5119796;28;20480;-63
2023/10/27 12:37:52;;;;;;;11.45;6.95;;;;;;;11.50;100.00;99080.72;5114324;28;20075;-64
2023/10/27 12:40:40;;;;;;;9.98;5.82;;;;;;;11.52;100.00;99089.38;5101417;28;20205;-64
2023/10/27 12:43:29;;;;;;;11.25;5.47;;;;;;;11.65;100.00;99090.38;5094128;28;20048;-65
2023/10/27 12:46:17;;;;;;;11.45;6.03;;;;;;;11.68;100.00;99078.00;5094310;28;20762;-64
2023/10/27 12:49:06;;;;;;;10.27;5.93;;;;;;;11.66;100.00;99078.31;5112627;28;20509;-65
2023/10/27 12:51:54;;;;;;;9.20;5.70;;;;;;;11.66;100.00;99086.50;5114089;28;20189;-64
2023/10/27 12:54:42;;;;;;;9.65;5.45;;;;;;;11.66;100.00;99077.53;5097154;28;20200;-64
2023/10/27 12:57:30;;;;;;;11.32;6.13;;;;;;;11.65;100.00;99076.72;5106771;28;20044;-65